createdAt,value
2019-06-15T00:00:48.570Z,13.10
2019-06-15T00:03:15.059Z,11.90
2019-06-15T00:05:41.458Z,12.57
2019-06-15T00:08:07.819Z,13.93
2019-06-15T00:10:34.479Z,13.40
2019-06-15T00:13:00.843Z,12.83
2019-06-15T00:15:27.261Z,14.03
2019-06-15T00:17:53.631Z,13.57
2019-06-15T00:20:20.109Z,14.10
2019-06-15T00:22:46.518Z,13.87
2019-06-15T00:25:12.953Z,13.30
2019-06-15T00:27:39.329Z,14.17
2019-06-15T00:30:05.955Z,13.70
2019-06-15T00:32:32.328Z,14.07
2019-06-15T00:34:58.755Z,15.40
2019-06-15T00:37:25.129Z,16.63
2019-06-15T00:39:51.536Z,13.93
2019-06-15T00:42:17.941Z,15.80
2019-06-15T00:44:44.335Z,13.93
2019-06-15T00:47:10.708Z,14.37
2019-06-15T00:49:37.188Z,14.53
2019-06-15T00:52:03.622Z,14.90
2019-06-15T00:54:30.012Z,13.73
2019-06-15T00:56:56.376Z,14.93
2019-06-15T00:59:22.749Z,15.33
2019-06-15T01:01:49.131Z,15.33
2019-06-15T01:04:15.515Z,14.67
2019-06-15T01:06:41.918Z,17.23
2019-06-15T01:09:08.383Z,16.27
2019-06-15T01:11:34.805Z,15.00
2019-06-15T01:14:01.321Z,15.57
2019-06-15T01:16:27.715Z,15.07
2019-06-15T01:18:54.104Z,16.57
2019-06-15T01:21:20.483Z,14.67
2019-06-15T01:23:46.937Z,14.40
2019-06-15T01:26:13.321Z,15.40
2019-06-15T01:28:39.698Z,14.87
2019-06-15T01:31:06.103Z,17.30
2019-06-15T01:33:33.687Z,15.77
2019-06-15T01:36:00.085Z,14.73
2019-06-15T01:38:26.555Z,14.77
2019-06-15T01:40:53.015Z,15.53
2019-06-15T01:43:19.641Z,15.70
2019-06-15T01:45:46.026Z,14.90
2019-06-15T01:48:12.426Z,15.33
2019-06-15T01:50:38.859Z,15.10
2019-06-15T01:53:05.274Z,14.77
2019-06-15T01:55:31.684Z,14.40
2019-06-15T01:57:58.182Z,14.47
2019-06-15T02:00:28.210Z,15.47
2019-06-15T02:02:54.618Z,16.33
2019-06-15T02:05:21.237Z,17.03
2019-06-15T02:07:47.643Z,15.23
2019-06-15T02:10:15.678Z,14.63
2019-06-15T02:12:42.056Z,15.73
2019-06-15T02:15:08.746Z,15.27
2019-06-15T02:17:35.110Z,14.87
2019-06-15T02:20:01.539Z,14.30
2019-06-15T02:22:27.915Z,14.60
2019-06-15T02:24:54.327Z,14.83
2019-06-15T02:27:20.984Z,15.37
2019-06-15T02:29:47.361Z,15.20
2019-06-15T02:32:13.743Z,16.07
2019-06-15T02:34:40.129Z,15.80
2019-06-15T02:37:06.594Z,18.17
2019-06-15T02:39:32.994Z,17.50
2019-06-15T02:41:59.460Z,18.20
2019-06-15T02:44:25.857Z,17.33
2019-06-15T02:46:52.217Z,18.07
2019-06-15T02:49:18.695Z,18.10
2019-06-15T02:51:45.170Z,19.17
2019-06-15T02:54:11.738Z,19.70
2019-06-15T02:56:38.071Z,21.07
2019-06-15T02:59:04.435Z,20.30
2019-06-15T03:01:30.979Z,21.60
2019-06-15T03:03:57.395Z,22.23
2019-06-15T03:06:23.913Z,20.83
2019-06-15T03:08:50.408Z,25.33
2019-06-15T03:11:16.794Z,27.23
2019-06-15T03:13:43.803Z,22.83
2019-06-15T03:16:10.179Z,23.77
2019-06-15T03:18:36.596Z,22.93
2019-06-15T03:21:03.159Z,22.30
2019-06-15T03:23:29.580Z,22.57
2019-06-15T03:26:05.126Z,23.03
2019-06-15T03:28:24.654Z,22.63
2019-06-15T03:30:51.018Z,20.20
2019-06-15T03:33:17.469Z,23.57
2019-06-15T03:35:43.836Z,22.00
2019-06-15T03:38:10.218Z,20.90
2019-06-15T03:40:36.639Z,22.53
2019-06-15T03:43:03.029Z,21.10
2019-06-15T03:45:29.436Z,21.80
2019-06-15T03:47:55.832Z,19.50
2019-06-15T03:50:22.226Z,20.87
2019-06-15T03:52:48.630Z,19.17
2019-06-15T03:55:15.362Z,18.93
2019-06-15T03:57:41.726Z,19.53
2019-06-15T04:00:41.423Z,18.97
2019-06-15T04:03:07.799Z,21.73
2019-06-15T04:05:34.190Z,19.63
2019-06-15T04:08:00.676Z,18.90
2019-06-15T04:10:27.068Z,20.43
2019-06-15T04:12:53.482Z,20.67
2019-06-15T04:15:19.878Z,19.10
2019-06-15T04:17:46.255Z,19.17
2019-06-15T04:20:12.787Z,18.13
2019-06-15T04:22:39.174Z,17.57
2019-06-15T04:25:05.637Z,19.17
2019-06-15T04:27:32.059Z,18.60
2019-06-15T04:29:58.442Z,17.30
2019-06-15T04:32:24.862Z,18.43
2019-06-15T04:34:51.325Z,20.53
2019-06-15T04:37:17.742Z,19.10
2019-06-15T04:39:44.172Z,18.53
2019-06-15T04:42:10.549Z,17.60
2019-06-15T04:44:36.989Z,19.40
2019-06-15T04:47:03.394Z,19.17
2019-06-15T04:49:29.786Z,18.00
2019-06-15T04:51:56.188Z,18.03
2019-06-15T04:54:22.562Z,18.50
2019-06-15T04:56:51.240Z,17.83
2019-06-15T04:59:17.332Z,18.73
2019-06-15T05:01:43.726Z,18.20
2019-06-15T05:04:10.129Z,17.70
2019-06-15T05:06:37.407Z,17.47
2019-06-15T05:09:05.193Z,17.70
2019-06-15T05:11:31.654Z,17.07
2019-06-15T05:13:58.161Z,16.33
2019-06-15T05:16:24.534Z,17.60
2019-06-15T05:18:50.948Z,17.00
2019-06-15T05:21:17.491Z,16.83
2019-06-15T05:23:43.911Z,15.83
2019-06-15T05:26:10.286Z,17.03
2019-06-15T05:28:36.672Z,18.03
2019-06-15T05:31:03.488Z,16.23
2019-06-15T05:33:29.819Z,17.03
2019-06-15T05:35:56.257Z,16.53
2019-06-15T05:38:22.714Z,16.37
2019-06-15T05:40:49.125Z,16.53
2019-06-15T05:43:15.527Z,17.03
2019-06-15T05:45:41.945Z,18.10
2019-06-15T05:48:08.692Z,16.03
2019-06-15T05:50:35.074Z,16.37
2019-06-15T05:53:01.472Z,14.93
2019-06-15T05:55:27.870Z,20.30
2019-06-15T05:57:54.429Z,15.13
2019-06-15T06:00:21.392Z,14.50
2019-06-15T06:02:47.809Z,14.97
2019-06-15T06:05:14.410Z,15.13
2019-06-15T06:07:40.835Z,14.80
2019-06-15T06:10:10.775Z,15.27
2019-06-15T06:12:36.824Z,17.37
2019-06-15T06:15:03.848Z,14.07
2019-06-15T06:17:30.237Z,15.47
2019-06-15T06:19:56.602Z,13.93
2019-06-15T06:22:23.026Z,14.87
2019-06-15T06:24:49.407Z,14.93
2019-06-15T06:27:15.825Z,14.03
2019-06-15T06:29:42.210Z,14.27
2019-06-15T06:32:08.599Z,13.47
2019-06-15T06:34:35.020Z,14.87
2019-06-15T06:37:01.400Z,16.37
2019-06-15T06:39:27.793Z,14.50
2019-06-15T06:41:54.198Z,14.27
2019-06-15T06:44:20.596Z,15.83
2019-06-15T06:46:47.056Z,14.23
2019-06-15T06:49:13.461Z,14.23
2019-06-15T06:51:39.835Z,14.00
2019-06-15T06:54:06.262Z,14.67
2019-06-15T06:56:32.629Z,14.00
2019-06-15T06:58:59.911Z,13.97
2019-06-15T07:01:26.336Z,14.07
2019-06-15T07:03:52.705Z,13.90
2019-06-15T07:06:19.169Z,15.83
2019-06-15T07:08:47.992Z,15.33
2019-06-15T07:11:14.034Z,16.43
2019-06-15T07:13:40.681Z,14.63
2019-06-15T07:16:07.237Z,15.23
2019-06-15T07:18:33.644Z,14.27
2019-06-15T07:21:00.172Z,15.10
2019-06-15T07:23:26.611Z,14.67
2019-06-15T07:25:53.038Z,14.07
2019-06-15T07:28:19.514Z,15.63
2019-06-15T07:30:46.264Z,16.17
2019-06-15T07:33:12.678Z,14.73
2019-06-15T07:35:39.106Z,14.33
2019-06-15T07:38:05.536Z,14.70
2019-06-15T07:40:32.009Z,13.90
2019-06-15T07:42:58.392Z,14.60
2019-06-15T07:45:24.772Z,16.23
2019-06-15T07:47:51.209Z,14.77
2019-06-15T07:50:17.812Z,14.90
2019-06-15T07:52:44.198Z,15.80
2019-06-15T07:55:11.143Z,15.83
2019-06-15T07:57:37.549Z,16.13
2019-06-15T08:00:04.765Z,16.40
2019-06-15T08:02:31.230Z,16.27
2019-06-15T08:04:57.821Z,16.30
2019-06-15T08:07:24.247Z,16.80
2019-06-15T08:09:51.559Z,16.93
2019-06-15T08:12:17.999Z,18.90
2019-06-15T08:14:44.392Z,19.03
2019-06-15T08:17:10.877Z,17.40
2019-06-15T08:19:37.277Z,17.00
2019-06-15T08:22:03.749Z,16.40
2019-06-15T08:24:30.163Z,16.07
2019-06-15T08:26:56.532Z,16.33
2019-06-15T08:29:22.925Z,15.20
2019-06-15T08:31:49.340Z,15.37
2019-06-15T08:34:15.722Z,15.70
2019-06-15T08:36:42.110Z,15.40
2019-06-15T08:39:08.514Z,15.00
2019-06-15T08:41:35.030Z,16.00
2019-06-15T08:44:01.505Z,16.53
2019-06-15T08:46:28.223Z,14.97
2019-06-15T08:48:54.612Z,15.47
2019-06-15T08:51:20.980Z,15.80
2019-06-15T08:53:47.381Z,17.97
2019-06-15T08:56:14.822Z,16.70
2019-06-15T08:58:54.745Z,16.27
2019-06-15T09:01:10.391Z,16.93
2019-06-15T09:03:36.768Z,17.53
2019-06-15T09:06:03.383Z,16.80
2019-06-15T09:08:29.783Z,19.70
2019-06-15T09:10:56.218Z,16.80
2019-06-15T09:13:22.589Z,16.47
2019-06-15T09:15:50.595Z,17.47
2019-06-15T09:18:17.000Z,17.80
2019-06-15T09:20:44.372Z,17.60
2019-06-15T09:23:10.752Z,19.93
2019-06-15T09:25:37.192Z,17.43
2019-06-15T09:28:03.602Z,17.67
2019-06-15T09:30:30.032Z,17.33
2019-06-15T09:32:56.464Z,17.83
2019-06-15T09:35:22.863Z,17.60
2019-06-15T09:37:49.286Z,16.33
2019-06-15T09:40:15.820Z,16.33
2019-06-15T09:42:45.576Z,17.57
2019-06-15T09:45:12.571Z,16.53
2019-06-15T09:47:39.026Z,16.97
2019-06-15T09:50:05.521Z,16.93
2019-06-15T09:52:31.922Z,16.60
2019-06-15T09:54:58.350Z,17.27
2019-06-15T09:57:25.776Z,17.10
2019-06-15T09:59:52.231Z,16.83
2019-06-15T10:02:18.775Z,16.73
2019-06-15T10:04:45.624Z,15.77
2019-06-15T10:07:12.251Z,16.30
2019-06-15T10:09:38.799Z,16.50
2019-06-15T10:12:06.480Z,15.98
2019-06-15T10:14:33.077Z,16.57
2019-06-15T10:16:59.499Z,15.65
2019-06-15T10:19:25.940Z,15.45
2019-06-15T10:21:52.343Z,15.58
2019-06-15T10:24:20.823Z,16.80
2019-06-15T10:26:47.200Z,15.65
2019-06-15T10:29:13.632Z,16.57
2019-06-15T10:31:40.020Z,16.90
2019-06-15T10:34:06.520Z,18.67
2019-06-15T10:36:32.936Z,18.50
2019-06-15T10:38:59.465Z,18.55
2019-06-15T10:41:25.851Z,17.50
2019-06-15T10:43:52.272Z,17.77
2019-06-15T10:46:18.665Z,17.67
2019-06-15T10:48:45.351Z,20.30
2019-06-15T10:51:11.769Z,18.23
2019-06-15T10:53:38.175Z,18.62
2019-06-15T10:56:04.715Z,18.82
2019-06-15T10:58:32.540Z,18.02
2019-06-15T11:00:58.909Z,19.55
2019-06-15T11:03:26.111Z,19.62
2019-06-15T11:05:54.908Z,18.35
2019-06-15T11:08:21.786Z,18.98
2019-06-15T11:17:45.755Z,18.92
2019-06-15T11:20:12.676Z,16.97
2019-06-15T11:22:39.162Z,18.17
2019-06-15T11:25:05.737Z,16.70
2019-06-15T11:27:32.250Z,16.15
2019-06-15T11:30:12.564Z,13.58
2019-06-15T11:32:26.870Z,13.80
2019-06-15T11:34:53.301Z,14.33
2019-06-15T11:37:19.686Z,17.62
2019-06-15T11:39:46.073Z,13.98
2019-06-15T11:42:12.512Z,14.50
2019-06-15T11:44:38.990Z,13.95
2019-06-15T11:47:05.555Z,13.78
2019-06-15T11:49:31.945Z,14.38
2019-06-15T11:51:58.663Z,13.90
2019-06-15T11:54:25.090Z,12.50
2019-06-15T11:56:51.496Z,12.85
2019-06-15T11:59:17.935Z,15.18
2019-06-15T12:01:44.372Z,12.25
2019-06-15T12:04:11.021Z,11.70
2019-06-15T12:06:38.159Z,13.85
2019-06-15T12:09:06.009Z,13.38
2019-06-15T12:11:32.395Z,12.37
2019-06-15T12:13:58.832Z,12.93
2019-06-15T12:16:28.556Z,13.78
2019-06-15T12:18:55.022Z,16.17
2019-06-15T12:21:21.482Z,13.00
2019-06-15T12:23:47.901Z,15.05
2019-06-15T12:26:14.289Z,12.45
2019-06-15T12:28:40.734Z,13.22
2019-06-15T12:31:07.321Z,15.90
2019-06-15T12:33:33.711Z,12.75
2019-06-15T12:36:00.401Z,14.68
2019-06-15T12:38:27.846Z,10.70
2019-06-15T12:40:59.355Z,12.13
2019-06-15T12:43:25.764Z,13.25
2019-06-15T12:45:52.149Z,11.30
2019-06-15T12:48:18.599Z,11.45
2019-06-15T12:50:45.107Z,8.18
2019-06-15T12:53:11.448Z,12.53
2019-06-15T12:55:37.865Z,11.65
2019-06-15T12:58:04.261Z,9.83
2019-06-15T13:00:35.267Z,10.10
2019-06-15T13:03:01.696Z,9.30
2019-06-15T13:05:29.064Z,11.20
2019-06-15T13:07:55.497Z,9.60
2019-06-15T13:10:21.874Z,11.28
2019-06-15T13:12:48.282Z,10.13
2019-06-15T13:15:15.111Z,11.20
2019-06-15T13:17:41.525Z,12.70
2019-06-15T13:20:09.031Z,9.70
2019-06-15T13:22:35.453Z,11.22
2019-06-15T13:25:01.923Z,8.23
2019-06-15T13:27:28.379Z,9.05
2019-06-15T13:29:54.839Z,6.72
2019-06-15T13:32:21.282Z,7.70
2019-06-15T13:34:47.673Z,10.00
2019-06-15T13:37:14.655Z,8.08
2019-06-15T13:39:41.044Z,8.18
2019-06-15T13:42:07.433Z,7.47
2019-06-15T13:44:33.814Z,7.72
2019-06-15T13:47:01.314Z,7.50
2019-06-15T13:49:30.009Z,5.85
2019-06-15T13:52:01.848Z,6.15
2019-06-15T13:54:29.682Z,8.65
2019-06-15T13:56:56.120Z,11.03
2019-06-15T13:59:22.598Z,8.18
2019-06-15T14:01:49.250Z,9.23
2019-06-15T14:04:15.633Z,6.50
2019-06-15T14:06:42.114Z,8.65
2019-06-15T14:09:08.702Z,8.68
2019-06-15T14:11:35.209Z,5.97
2019-06-15T14:14:01.607Z,6.60
2019-06-15T14:16:27.985Z,7.42
2019-06-15T14:18:54.400Z,9.50
2019-06-15T14:21:20.768Z,9.73
2019-06-15T14:23:47.197Z,5.80
2019-06-15T14:26:13.591Z,6.12
2019-06-15T14:28:40.057Z,6.58
2019-06-15T14:31:06.469Z,7.37
2019-06-15T14:33:32.862Z,8.13
2019-06-15T14:35:59.271Z,6.67
2019-06-15T14:38:25.667Z,8.60
2019-06-15T14:40:52.058Z,8.55
2019-06-15T14:43:18.440Z,8.25
2019-06-15T14:45:58.451Z,8.18
2019-06-15T14:48:13.212Z,7.65
2019-06-15T14:50:39.770Z,15.28
2019-06-15T14:53:06.112Z,9.65
2019-06-15T14:55:32.515Z,11.00
2019-06-15T14:57:58.883Z,8.33
2019-06-15T15:00:25.383Z,20.08
2019-06-15T15:02:51.749Z,8.53
2019-06-15T15:05:18.295Z,12.88
2019-06-15T15:07:46.945Z,7.50
2019-06-15T15:10:16.200Z,8.83
2019-06-15T15:12:42.098Z,10.23
2019-06-15T15:15:09.139Z,23.02
2019-06-15T15:17:37.225Z,8.05
2019-06-15T15:20:07.094Z,8.38
2019-06-15T15:22:33.021Z,9.53
2019-06-15T15:24:59.421Z,6.22
2019-06-15T15:27:27.129Z,9.93
2019-06-15T15:29:53.820Z,7.83
2019-06-15T15:32:27.133Z,9.55
2019-06-15T15:34:48.591Z,13.53
2019-06-15T15:37:15.915Z,10.15
2019-06-15T15:39:42.316Z,9.10
2019-06-15T15:42:08.859Z,10.23
2019-06-15T15:44:35.971Z,12.20
2019-06-15T15:47:02.527Z,7.20
2019-06-15T15:49:28.930Z,8.30
2019-06-15T15:51:56.594Z,8.70
2019-06-15T15:54:23.423Z,11.53
2019-06-15T15:56:49.810Z,9.35
2019-06-15T15:59:16.391Z,6.90
2019-06-15T16:01:42.866Z,9.03
2019-06-15T16:04:09.335Z,10.40
2019-06-15T16:06:36.367Z,10.65
2019-06-15T16:09:06.163Z,7.80
2019-06-15T16:11:33.092Z,9.80
2019-06-15T16:13:59.503Z,7.17
2019-06-15T16:16:26.664Z,7.65
2019-06-15T16:18:55.985Z,7.03
2019-06-15T16:21:21.879Z,6.08
2019-06-15T16:23:48.348Z,6.60
2019-06-15T16:26:16.994Z,5.97
2019-06-15T16:28:46.104Z,6.65
2019-06-15T16:31:14.130Z,6.12
2019-06-15T16:33:41.295Z,6.22
2019-06-15T16:36:07.971Z,6.05
2019-06-15T16:38:36.440Z,6.72
2019-06-15T16:41:02.696Z,6.65
2019-06-15T16:43:29.102Z,7.37
2019-06-15T16:45:57.065Z,6.28
2019-06-15T16:48:25.963Z,7.72
2019-06-15T16:50:52.232Z,9.57
2019-06-15T16:53:19.061Z,9.57
2019-06-15T16:55:46.842Z,7.23
2019-06-15T16:58:15.968Z,7.57
2019-06-15T17:00:41.939Z,8.40
2019-06-15T17:03:20.674Z,9.30
2019-06-15T17:05:37.854Z,8.73
2019-06-15T17:08:06.695Z,8.53
2019-06-15T17:10:39.943Z,5.60
2019-06-15T17:13:07.095Z,8.67
2019-06-15T17:15:33.586Z,6.63
2019-06-15T17:18:00.949Z,6.47
2019-06-15T17:20:31.725Z,6.57
2019-06-15T17:22:58.114Z,9.80
2019-06-15T17:25:26.875Z,5.67
2019-06-15T17:27:52.851Z,5.63
2019-06-15T17:30:19.662Z,6.07
2019-06-15T17:32:46.068Z,5.83
2019-06-15T17:35:12.490Z,5.43
2019-06-15T17:37:38.883Z,5.60
2019-06-15T17:40:05.554Z,8.17
2019-06-15T17:42:31.952Z,5.60
2019-06-15T17:44:59.143Z,7.97
2019-06-15T17:47:26.259Z,4.93
2019-06-15T17:49:56.084Z,4.90
2019-06-15T17:52:22.251Z,8.53
2019-06-15T17:54:48.665Z,6.33
2019-06-15T17:57:15.077Z,4.73
2019-06-15T17:59:41.459Z,5.67
2019-06-15T18:02:07.906Z,4.77
2019-06-15T18:04:37.097Z,3.83
2019-06-15T18:07:02.625Z,4.50
2019-06-15T18:09:29.025Z,5.63
2019-06-15T18:11:57.166Z,4.33
2019-06-15T18:14:26.262Z,5.20
2019-06-15T18:16:52.005Z,6.67
2019-06-15T18:19:18.393Z,4.33
2019-06-15T18:21:46.744Z,4.53
2019-06-15T18:24:13.152Z,3.90
2019-06-15T18:26:39.534Z,4.17
2019-06-15T18:29:05.978Z,3.83
2019-06-15T18:31:32.435Z,4.47
2019-06-15T18:34:09.297Z,3.70
2019-06-15T18:36:27.380Z,5.13
2019-06-15T18:38:53.764Z,6.53
2019-06-15T18:41:20.170Z,9.53
2019-06-15T18:43:46.551Z,4.00
2019-06-15T18:46:12.935Z,4.67
2019-06-15T18:48:39.340Z,3.43
2019-06-15T18:51:07.583Z,3.93
2019-06-15T18:53:36.771Z,5.70
2019-06-15T18:56:02.386Z,3.40
2019-06-15T18:58:28.809Z,4.60
2019-06-15T19:00:55.193Z,5.13
2019-06-15T19:03:21.665Z,4.10
2019-06-15T19:05:48.082Z,6.27
2019-06-15T19:08:17.116Z,4.37
2019-06-15T19:10:42.930Z,4.07
2019-06-15T19:13:10.286Z,5.03
2019-06-15T19:15:37.465Z,7.00
2019-06-15T19:18:04.004Z,3.53
2019-06-15T19:20:30.542Z,4.43
2019-06-15T19:22:57.098Z,4.53
2019-06-15T19:25:23.493Z,5.40
2019-06-15T19:27:50.059Z,4.03
2019-06-15T19:30:16.769Z,4.53
2019-06-15T19:32:43.290Z,4.80
2019-06-15T19:35:09.901Z,4.73
2019-06-15T19:37:37.078Z,6.50
2019-06-15T19:40:03.811Z,4.73
2019-06-15T19:42:38.124Z,4.17
2019-06-15T19:45:07.741Z,5.47
2019-06-15T19:47:40.320Z,4.83
2019-06-15T19:50:09.777Z,5.17
2019-06-15T19:52:36.087Z,4.17
2019-06-15T19:55:02.735Z,4.53
2019-06-15T19:57:29.231Z,7.40
2019-06-15T19:59:56.194Z,4.50
2019-06-15T20:02:22.776Z,4.10
2019-06-15T20:05:00.356Z,4.77
2019-06-15T20:07:18.259Z,4.37
2019-06-15T20:09:46.246Z,5.63
2019-06-15T20:12:19.173Z,5.13
2019-06-15T20:14:46.011Z,4.47
2019-06-15T20:17:11.656Z,6.17
2019-06-15T20:19:38.444Z,5.20
2019-06-15T20:22:06.644Z,4.70
2019-06-15T20:24:33.296Z,5.43
2019-06-15T20:26:59.765Z,5.77
2019-06-15T20:29:27.155Z,4.97
2019-06-15T20:31:53.672Z,5.13
2019-06-15T20:34:20.107Z,4.33
2019-06-15T20:36:47.102Z,4.73
2019-06-15T20:39:16.487Z,6.43
2019-06-15T20:41:43.413Z,4.90
2019-06-15T20:44:09.920Z,5.33
2019-06-15T20:46:37.154Z,5.43
2019-06-15T20:49:06.521Z,5.80
2019-06-15T20:51:33.440Z,4.70
2019-06-15T20:54:00.720Z,7.07
2019-06-15T20:56:27.618Z,4.50
2019-06-15T20:58:56.974Z,5.23
2019-06-15T21:01:22.348Z,5.47
2019-06-15T21:03:48.822Z,5.97
2019-06-15T21:06:16.861Z,4.87
2019-06-15T21:08:43.424Z,5.50
2019-06-15T21:11:09.828Z,5.70
2019-06-15T21:13:37.465Z,5.80
2019-06-15T21:16:06.532Z,5.10
2019-06-15T21:18:34.038Z,7.23
2019-06-15T21:21:00.772Z,5.23
2019-06-15T21:23:27.151Z,5.50
2019-06-15T21:25:53.597Z,5.27
2019-06-15T21:28:20.090Z,7.23
2019-06-15T21:30:47.106Z,5.50
2019-06-15T21:33:13.754Z,5.80
2019-06-15T21:35:48.971Z,7.13
2019-06-15T21:38:08.494Z,5.57
2019-06-15T21:40:36.770Z,5.70
2019-06-15T21:43:03.245Z,5.60
2019-06-15T21:45:29.657Z,5.30
2019-06-15T21:47:56.364Z,5.43
2019-06-15T21:50:22.827Z,5.10
2019-06-15T21:52:49.504Z,5.07
2019-06-15T21:55:16.084Z,5.43
2019-06-15T21:57:42.649Z,7.87
2019-06-15T22:00:12.596Z,4.70
2019-06-15T22:02:47.083Z,5.57
2019-06-15T22:05:13.799Z,5.57
2019-06-15T22:07:40.220Z,4.50
2019-06-15T22:10:07.300Z,3.67
2019-06-15T22:12:36.357Z,4.10
2019-06-15T22:15:02.237Z,3.70
2019-06-15T22:17:28.821Z,3.33
2019-06-15T22:19:56.921Z,3.80
2019-06-15T22:22:23.488Z,5.60
2019-06-15T22:24:49.893Z,6.27
2019-06-15T22:27:17.046Z,3.50
2019-06-15T22:29:43.626Z,4.10
2019-06-15T22:32:10.048Z,4.17
2019-06-15T22:34:36.524Z,2.80
2019-06-15T22:37:03.080Z,3.10
2019-06-15T22:39:29.488Z,5.97
2019-06-15T22:41:56.160Z,3.30
2019-06-15T22:44:22.809Z,3.53
2019-06-15T22:46:49.265Z,2.03
2019-06-15T22:49:16.131Z,2.53
2019-06-15T22:51:42.783Z,2.60
2019-06-15T22:54:09.231Z,2.50
2019-06-15T22:56:37.028Z,2.70
2019-06-15T22:59:06.126Z,1.83
2019-06-15T23:01:32.068Z,3.20
2019-06-15T23:03:58.504Z,2.60
2019-06-15T23:06:34.711Z,1.83
2019-06-15T23:08:53.393Z,2.10
2019-06-15T23:11:19.814Z,1.83
2019-06-15T23:13:46.438Z,1.30
2019-06-15T23:16:12.832Z,1.83
2019-06-15T23:18:39.308Z,1.20
2019-06-15T23:21:06.399Z,2.23
2019-06-15T23:23:32.936Z,1.30
2019-06-15T23:25:59.364Z,1.53
2019-06-15T23:28:27.074Z,1.20
2019-06-15T23:30:56.051Z,1.90
2019-06-15T23:33:22.085Z,2.23
2019-06-15T23:35:56.832Z,1.63
2019-06-15T23:38:23.274Z,1.90
2019-06-15T23:40:49.677Z,1.23
2019-06-15T23:43:16.682Z,1.53
2019-06-15T23:45:56.083Z,2.33
2019-06-15T23:48:22.647Z,1.10
2019-06-15T23:50:49.035Z,3.10
2019-06-15T23:53:16.929Z,1.47
2019-06-15T23:55:43.472Z,0.90
2019-06-15T23:58:09.869Z,8.27
